Terminal Aerodrome Forecast
Issued by NWS

Home | Current Version | Previous Version | Text Only | Print | Product List | Glossary On
Versions: 1 2 3 4 5 6 7 8 9 10 11 12 13 14 15 16 17 18
000
FTUS41 KCAR 191900 AAA
TAFFVE
TAF AMD
KFVE 191931Z 1920/2018 31012G20KT P6SM SCT025 OVC035
     FM200000 32010KT P6SM BKN100
     FM200600 33006KT P6SM SCT250=

USA.gov is the U.S. government's official web portal to all federal, state and local government web resources and services.